createdAt,value
2022-09-07T00:00:29.902Z,0.90
2022-09-07T00:01:29.887Z,0.90
2022-09-07T00:02:29.912Z,0.60
2022-09-07T00:03:29.967Z,1.10
2022-09-07T00:04:29.904Z,1.00
2022-09-07T00:05:29.846Z,1.00
2022-09-07T00:06:29.845Z,0.90
2022-09-07T00:07:29.848Z,1.00
2022-09-07T00:08:29.922Z,1.00
2022-09-07T00:09:29.806Z,0.90
2022-09-07T00:10:29.804Z,1.00
2022-09-07T00:11:29.789Z,0.80
2022-09-07T00:12:29.782Z,0.90
2022-09-07T00:13:29.785Z,1.20
2022-09-07T00:14:29.759Z,0.90
2022-09-07T00:15:29.754Z,1.30
2022-09-07T00:16:29.817Z,0.90
2022-09-07T00:17:29.735Z,0.90
2022-09-07T00:18:29.841Z,1.00
2022-09-07T00:19:29.715Z,0.90
2022-09-07T00:20:29.701Z,1.10
2022-09-07T00:21:29.695Z,1.10
2022-09-07T00:22:29.680Z,0.80
2022-09-07T00:23:29.689Z,0.90
2022-09-07T00:24:29.663Z,0.90
2022-09-07T00:25:31.917Z,1.20
2022-09-07T00:26:29.642Z,1.10
2022-09-07T00:27:29.653Z,1.00
2022-09-07T00:28:29.847Z,1.00
2022-09-07T00:29:29.616Z,0.90
2022-09-07T00:30:29.604Z,0.80
2022-09-07T00:31:29.719Z,1.00
2022-09-07T00:32:29.583Z,0.80
2022-09-07T00:33:29.594Z,0.90
2022-09-07T00:34:29.565Z,1.00
2022-09-07T00:35:29.561Z,0.90
2022-09-07T00:36:29.548Z,0.80
2022-09-07T00:37:29.540Z,0.90
2022-09-07T00:38:29.545Z,1.30
2022-09-07T00:39:29.547Z,0.90
2022-09-07T00:40:29.506Z,1.20
2022-09-07T00:41:29.499Z,1.00
2022-09-07T00:42:29.486Z,1.00
2022-09-07T00:43:29.493Z,1.00
2022-09-07T00:44:29.472Z,1.10
2022-09-07T00:45:29.460Z,0.90
2022-09-07T00:46:29.538Z,0.90
2022-09-07T00:47:29.440Z,1.00
2022-09-07T00:48:29.642Z,1.10
2022-09-07T00:49:29.423Z,1.00
2022-09-07T00:50:29.408Z,1.10
2022-09-07T00:51:29.404Z,1.00
2022-09-07T00:52:29.390Z,0.90
2022-09-07T00:53:29.476Z,1.00
2022-09-07T00:54:29.371Z,0.90
2022-09-07T00:55:29.363Z,1.00
2022-09-07T00:56:29.352Z,1.00
2022-09-07T00:57:29.347Z,0.90
2022-09-07T00:58:29.467Z,1.00
2022-09-07T00:59:29.326Z,1.10
2022-09-07T01:00:29.311Z,0.80
2022-09-07T01:01:29.479Z,1.00
2022-09-07T01:02:29.396Z,1.10
2022-09-07T01:03:29.305Z,1.00
2022-09-07T01:04:29.275Z,1.00
2022-09-07T01:05:29.280Z,1.00
2022-09-07T01:06:29.258Z,1.10
2022-09-07T01:07:29.251Z,0.90
2022-09-07T01:08:29.291Z,0.90
2022-09-07T01:09:29.238Z,1.00
2022-09-07T01:10:29.223Z,0.90
2022-09-07T01:11:29.209Z,1.10
2022-09-07T01:12:29.198Z,1.10
2022-09-07T01:13:29.219Z,1.40
2022-09-07T01:14:29.185Z,1.10
2022-09-07T01:15:29.171Z,1.30
2022-09-07T01:16:29.251Z,0.90
2022-09-07T01:17:29.152Z,1.10
2022-09-07T01:18:29.171Z,0.90
2022-09-07T01:19:29.132Z,0.90
2022-09-07T01:20:29.119Z,0.80
2022-09-07T01:21:29.113Z,0.90
2022-09-07T01:22:29.097Z,1.10
2022-09-07T01:23:29.106Z,0.90
2022-09-07T01:24:29.081Z,1.10
2022-09-07T01:25:29.076Z,0.70
2022-09-07T01:26:29.060Z,1.00
2022-09-07T01:27:29.052Z,1.00
2022-09-07T01:28:29.182Z,1.00
2022-09-07T01:29:29.035Z,1.00
2022-09-07T01:30:29.020Z,1.00
2022-09-07T01:31:29.093Z,0.80
2022-09-07T01:32:29.000Z,0.90
2022-09-07T01:33:29.016Z,1.10
2022-09-07T01:34:28.982Z,0.90
2022-09-07T01:35:28.978Z,1.00
2022-09-07T01:36:28.962Z,1.10
2022-09-07T01:37:28.955Z,1.10
2022-09-07T01:38:29.045Z,1.30
2022-09-07T01:39:28.998Z,1.00
2022-09-07T01:40:28.923Z,1.10
2022-09-07T01:41:28.916Z,1.20
2022-09-07T01:42:28.905Z,1.20
2022-09-07T01:43:28.916Z,1.30
2022-09-07T01:44:28.883Z,1.00
2022-09-07T01:45:28.881Z,1.00
2022-09-07T01:46:28.985Z,1.00
2022-09-07T01:47:28.860Z,1.00
2022-09-07T01:48:28.914Z,0.90
2022-09-07T01:49:28.842Z,1.00
2022-09-07T01:50:28.826Z,0.90
2022-09-07T01:51:28.824Z,0.90
2022-09-07T01:52:28.807Z,1.00
2022-09-07T01:53:28.812Z,0.80
2022-09-07T01:54:28.787Z,0.90
2022-09-07T01:55:28.780Z,0.80
2022-09-07T01:56:28.768Z,1.00
2022-09-07T01:57:28.763Z,0.90
2022-09-07T01:58:28.778Z,0.90
2022-09-07T01:59:28.743Z,1.00
2022-09-07T02:00:28.731Z,0.90
2022-09-07T02:01:28.783Z,0.90
2022-09-07T02:02:28.769Z,0.80
2022-09-07T02:03:28.718Z,0.90
2022-09-07T02:04:28.688Z,1.10
2022-09-07T02:05:28.684Z,0.70
2022-09-07T02:06:28.668Z,1.00
2022-09-07T02:07:28.668Z,1.20
2022-09-07T02:08:28.697Z,1.00
2022-09-07T02:09:28.644Z,1.10
2022-09-07T02:10:28.631Z,0.80
2022-09-07T02:11:28.627Z,0.90
2022-09-07T02:12:28.611Z,0.80
2022-09-07T02:13:28.621Z,1.00
2022-09-07T02:14:28.592Z,0.90
2022-09-07T02:15:28.669Z,1.10
2022-09-07T02:16:28.574Z,0.90
2022-09-07T02:17:28.569Z,1.00
2022-09-07T02:18:28.640Z,1.00
2022-09-07T02:19:28.548Z,0.80
2022-09-07T02:20:28.533Z,1.00
2022-09-07T02:21:28.529Z,1.00
2022-09-07T02:22:28.515Z,0.90
2022-09-07T02:23:28.524Z,0.90
2022-09-07T02:24:28.494Z,1.00
2022-09-07T02:25:28.499Z,0.80
2022-09-07T02:26:28.478Z,0.70
2022-09-07T02:27:28.486Z,0.80
2022-09-07T02:28:28.471Z,0.80
2022-09-07T02:29:30.976Z,0.80
2022-09-07T02:30:28.437Z,0.90
2022-09-07T02:31:28.506Z,1.00
2022-09-07T02:32:28.418Z,0.90
2022-09-07T02:33:28.428Z,0.90
2022-09-07T02:34:28.398Z,1.00
2022-09-07T02:35:28.391Z,1.30
2022-09-07T02:36:28.377Z,1.10
2022-09-07T02:37:28.371Z,1.00
2022-09-07T02:38:28.370Z,1.00
2022-09-07T02:39:28.391Z,1.10
2022-09-07T02:40:28.339Z,1.10
2022-09-07T02:41:28.330Z,1.10
2022-09-07T02:42:28.319Z,1.00
2022-09-07T02:43:28.330Z,1.30
2022-09-07T02:44:28.300Z,1.30
2022-09-07T02:45:28.295Z,1.10
2022-09-07T02:46:28.335Z,1.30
2022-09-07T02:47:28.272Z,1.20
2022-09-07T02:48:28.324Z,1.10
2022-09-07T02:49:28.252Z,1.30
2022-09-07T02:50:28.241Z,1.00
2022-09-07T02:51:28.236Z,1.10
2022-09-07T02:52:28.223Z,1.10
2022-09-07T02:53:28.228Z,0.90
2022-09-07T02:54:28.203Z,1.20
2022-09-07T02:55:28.209Z,1.20
2022-09-07T02:56:28.182Z,1.20
2022-09-07T02:57:28.180Z,1.30
2022-09-07T02:58:28.257Z,1.10
2022-09-07T02:59:28.158Z,1.00
2022-09-07T03:00:28.145Z,1.10
2022-09-07T03:01:28.174Z,1.10
2022-09-07T03:02:28.192Z,1.10
2022-09-07T03:03:28.132Z,1.20
2022-09-07T03:04:28.111Z,1.20
2022-09-07T03:05:28.098Z,1.00
2022-09-07T03:06:28.083Z,1.20
2022-09-07T03:07:28.079Z,1.00
2022-09-07T03:08:28.158Z,1.00
2022-09-07T03:09:28.059Z,0.80
2022-09-07T03:10:28.047Z,1.00
2022-09-07T03:11:28.041Z,0.80
2022-09-07T03:12:28.025Z,0.90
2022-09-07T03:13:28.035Z,0.90
2022-09-07T03:14:28.008Z,1.00
2022-09-07T03:15:28.085Z,1.00
2022-09-07T03:16:27.988Z,1.00
2022-09-07T03:17:27.981Z,0.80
2022-09-07T03:18:28.003Z,1.10
2022-09-07T03:19:27.962Z,1.10
2022-09-07T03:20:27.950Z,0.80
2022-09-07T03:21:27.948Z,1.10
2022-09-07T03:22:27.931Z,1.10
2022-09-07T03:23:27.939Z,1.10
2022-09-07T03:24:27.909Z,1.10
2022-09-07T03:25:27.908Z,1.10
2022-09-07T03:26:27.890Z,0.90
2022-09-07T03:27:27.887Z,1.20
2022-09-07T03:28:27.885Z,1.10
2022-09-07T03:29:27.865Z,0.90
2022-09-07T03:30:27.853Z,1.10
2022-09-07T03:31:27.845Z,1.10
2022-09-07T03:32:27.833Z,1.00
2022-09-07T03:33:27.837Z,1.10
2022-09-07T03:34:27.811Z,1.10
2022-09-07T03:35:27.808Z,1.30
2022-09-07T03:36:27.794Z,1.10
2022-09-07T03:37:27.788Z,1.10
2022-09-07T03:38:27.862Z,1.10
2022-09-07T03:39:27.826Z,1.10
2022-09-07T03:40:27.777Z,1.20
2022-09-07T03:41:27.750Z,1.00
2022-09-07T03:42:27.735Z,1.20
2022-09-07T03:43:27.741Z,1.10
2022-09-07T03:44:27.714Z,1.10
2022-09-07T03:45:27.708Z,1.00
2022-09-07T03:46:27.814Z,1.00
2022-09-07T03:47:27.692Z,0.90
2022-09-07T03:48:27.686Z,0.90
2022-09-07T03:49:27.709Z,1.10
2022-09-07T03:50:27.657Z,1.30
2022-09-07T03:51:27.650Z,1.20
2022-09-07T03:52:27.640Z,1.10
2022-09-07T03:53:27.662Z,1.20
2022-09-07T03:54:27.618Z,1.00
2022-09-07T03:55:27.614Z,0.90
2022-09-07T03:56:27.599Z,1.20
2022-09-07T03:57:27.593Z,0.90
2022-09-07T03:58:27.650Z,1.00
2022-09-07T03:59:27.588Z,0.90
2022-09-07T04:00:27.560Z,1.00
2022-09-07T04:01:27.581Z,0.90
2022-09-07T04:02:27.599Z,1.10
2022-09-07T04:03:27.548Z,1.30
2022-09-07T04:04:27.526Z,0.90
2022-09-07T04:05:27.518Z,1.00
2022-09-07T04:06:27.500Z,1.00
2022-09-07T04:07:27.495Z,1.10
2022-09-07T04:08:27.518Z,1.10
2022-09-07T04:09:27.474Z,1.20
2022-09-07T04:10:27.462Z,1.10
2022-09-07T04:11:27.458Z,1.00
2022-09-07T04:12:27.442Z,1.20
2022-09-07T04:13:27.450Z,1.20
2022-09-07T04:14:27.422Z,1.10
2022-09-07T04:15:27.419Z,1.10
2022-09-07T04:16:27.455Z,1.30
2022-09-07T04:17:27.398Z,1.30
2022-09-07T04:18:27.470Z,1.10
2022-09-07T04:19:27.379Z,1.10
2022-09-07T04:20:27.367Z,1.00
2022-09-07T04:21:27.361Z,1.20
2022-09-07T04:22:27.346Z,1.00
2022-09-07T04:23:27.340Z,1.30
2022-09-07T04:24:27.336Z,1.10
2022-09-07T04:25:27.321Z,1.10
2022-09-07T04:26:27.309Z,1.10
2022-09-07T04:27:27.302Z,1.20
2022-09-07T04:28:27.335Z,1.10
2022-09-07T04:29:27.286Z,1.10
2022-09-07T04:30:27.276Z,1.20
2022-09-07T04:31:27.438Z,1.20
2022-09-07T04:32:27.254Z,1.10
2022-09-07T04:33:27.253Z,1.10
2022-09-07T04:34:27.235Z,1.10
2022-09-07T04:35:27.218Z,1.10
2022-09-07T04:36:27.216Z,1.00
2022-09-07T04:37:27.200Z,1.10
2022-09-07T04:38:27.297Z,1.00
2022-09-07T04:39:27.234Z,1.10
2022-09-07T04:40:27.175Z,1.00
2022-09-07T04:41:27.160Z,1.30
2022-09-07T04:42:27.154Z,0.90
2022-09-07T04:43:27.155Z,1.20
2022-09-07T04:44:27.138Z,1.00
2022-09-07T04:45:27.122Z,1.40
2022-09-07T04:46:27.190Z,1.00
2022-09-07T04:47:27.108Z,0.90
2022-09-07T04:48:27.214Z,1.30
2022-09-07T04:49:27.085Z,1.10
2022-09-07T04:50:27.077Z,1.30
2022-09-07T04:51:27.061Z,1.00
2022-09-07T04:52:27.063Z,0.80
2022-09-07T04:53:27.044Z,1.00
2022-09-07T04:54:27.055Z,0.80
2022-09-07T04:55:27.025Z,1.30
2022-09-07T04:56:27.021Z,1.10
2022-09-07T04:57:27.004Z,1.20
2022-09-07T04:58:27.083Z,1.20
2022-09-07T04:59:26.988Z,1.10
2022-09-07T05:00:26.980Z,1.10
2022-09-07T05:01:27.026Z,1.20
2022-09-07T05:02:27.055Z,1.00
2022-09-07T05:03:26.943Z,0.80
2022-09-07T05:04:26.953Z,1.00
2022-09-07T05:05:26.925Z,1.00
2022-09-07T05:06:26.929Z,1.00
2022-09-07T05:07:26.907Z,1.40
2022-09-07T05:08:26.933Z,1.10
2022-09-07T05:09:26.897Z,0.90
2022-09-07T05:10:26.893Z,1.10
2022-09-07T05:11:29.541Z,1.10
2022-09-07T05:12:26.869Z,1.00
2022-09-07T05:13:26.863Z,1.30
2022-09-07T05:14:26.843Z,0.90
2022-09-07T05:15:26.827Z,1.00
2022-09-07T05:16:26.910Z,1.00
2022-09-07T05:17:26.809Z,1.20
2022-09-07T05:18:26.921Z,1.20
2022-09-07T05:19:26.788Z,1.20
2022-09-07T05:20:26.819Z,1.20
2022-09-07T05:21:26.771Z,1.30
2022-09-07T05:22:26.780Z,1.00
2022-09-07T05:23:26.773Z,1.50
2022-09-07T05:24:26.747Z,1.30
2022-09-07T05:25:26.731Z,1.00
2022-09-07T05:26:26.726Z,1.30
2022-09-07T05:27:26.711Z,1.30
2022-09-07T05:28:26.723Z,1.20
2022-09-07T05:31:26.685Z,1.10
2022-09-07T05:32:26.668Z,1.10
2022-09-07T05:34:31.315Z,1.20
2022-09-07T05:35:26.636Z,1.20
2022-09-07T05:36:26.629Z,1.10
2022-09-07T05:37:26.614Z,1.20
2022-09-07T05:38:26.657Z,1.40
2022-09-07T05:39:26.715Z,1.20
2022-09-07T05:40:26.588Z,1.00
2022-09-07T05:41:26.577Z,1.30
2022-09-07T05:42:26.571Z,1.20
2022-09-07T05:43:32.569Z,1.40
2022-09-07T05:45:26.724Z,1.50
2022-09-07T05:46:26.538Z,1.10
2022-09-07T05:47:26.520Z,1.10
2022-09-07T05:48:26.611Z,1.30
2022-09-07T05:49:26.500Z,1.30
2022-09-07T05:50:26.494Z,1.50
2022-09-07T05:51:26.481Z,2.10
2022-09-07T05:52:26.477Z,1.80
2022-09-07T05:53:26.503Z,1.90
2022-09-07T05:54:26.457Z,1.90
2022-09-07T05:55:30.617Z,1.80
2022-09-07T05:56:26.433Z,2.20
2022-09-07T05:57:26.432Z,2.00
2022-09-07T05:58:26.419Z,1.50
2022-09-07T05:59:26.424Z,1.10
2022-09-07T06:00:26.395Z,1.00
2022-09-07T06:01:26.381Z,1.10
2022-09-07T06:02:26.564Z,1.10
2022-09-07T06:03:26.512Z,1.10
2022-09-07T06:04:26.424Z,1.30
2022-09-07T06:05:26.343Z,1.20
2022-09-07T06:06:26.342Z,1.20
2022-09-07T06:07:26.329Z,1.30
2022-09-07T06:08:26.321Z,1.20
2022-09-07T06:09:30.343Z,1.10
2022-09-07T06:11:26.292Z,1.10
2022-09-07T06:12:26.282Z,1.10
2022-09-07T06:13:26.273Z,1.10
2022-09-07T06:14:26.285Z,1.40
2022-09-07T06:15:26.261Z,1.20
2022-09-07T06:16:26.269Z,1.10
2022-09-07T06:17:26.227Z,1.00
2022-09-07T06:18:26.224Z,1.10
2022-09-07T06:19:26.221Z,2.10
2022-09-07T06:20:26.253Z,2.10
2022-09-07T06:21:26.187Z,1.30
2022-09-07T06:22:30.557Z,1.80
2022-09-07T06:23:26.171Z,1.30
2022-09-07T06:24:26.175Z,1.10
2022-09-07T06:25:26.156Z,1.40
2022-09-07T06:26:26.144Z,1.10
2022-09-07T06:27:26.128Z,1.20
2022-09-07T06:28:26.126Z,1.10
2022-09-07T06:29:26.171Z,1.20
2022-09-07T06:30:26.157Z,1.20
2022-09-07T06:31:26.160Z,1.20
2022-09-07T06:33:26.115Z,1.50
2022-09-07T06:34:26.248Z,1.80
2022-09-07T06:35:26.058Z,1.80
2022-09-07T06:36:26.046Z,2.00
2022-09-07T06:37:26.035Z,2.10
2022-09-07T06:38:31.250Z,1.80
2022-09-07T06:39:26.078Z,2.10
2022-09-07T06:40:26.067Z,1.60
2022-09-07T06:42:26.002Z,1.50
2022-09-07T06:43:25.978Z,1.10
2022-09-07T06:44:25.986Z,1.40
2022-09-07T06:45:25.984Z,1.20
2022-09-07T06:47:25.954Z,1.50
2022-09-07T06:48:25.960Z,1.50
2022-09-07T06:49:25.936Z,1.50
2022-09-07T06:50:25.914Z,1.20
2022-09-07T06:51:25.900Z,1.10
2022-09-07T06:52:25.953Z,1.30
2022-09-07T06:55:25.867Z,1.10
2022-09-07T06:56:25.857Z,1.30
2022-09-07T06:57:25.844Z,1.10
2022-09-07T06:58:25.873Z,1.20
2022-09-07T06:59:25.839Z,1.10
2022-09-07T07:00:25.818Z,1.20
2022-09-07T07:01:25.862Z,1.20
2022-09-07T07:02:25.796Z,1.00
2022-09-07T07:03:25.866Z,1.00
2022-09-07T07:04:25.794Z,1.30
2022-09-07T07:05:25.764Z,1.60
2022-09-07T07:06:25.763Z,1.20
2022-09-07T07:07:25.746Z,1.00
2022-09-07T07:08:25.836Z,1.00
2022-09-07T07:09:25.745Z,1.20
2022-09-07T07:10:25.738Z,1.20
2022-09-07T07:11:25.755Z,1.20
2022-09-07T07:12:55.844Z,1.10
2022-09-07T07:13:56.776Z,1.30
2022-09-07T07:14:56.777Z,1.20
2022-09-07T07:15:56.795Z,1.50
2022-09-07T07:16:56.757Z,1.00
2022-09-07T07:18:02.580Z,1.20
2022-09-07T07:18:56.744Z,1.50
2022-09-07T07:19:56.715Z,1.70
2022-09-07T07:20:56.700Z,1.50
2022-09-07T07:22:56.690Z,1.70
2022-09-07T07:23:56.690Z,1.60
2022-09-07T07:24:56.671Z,1.50
2022-09-07T07:25:56.657Z,1.40
2022-09-07T07:26:56.643Z,1.50
2022-09-07T07:27:56.872Z,1.30
2022-09-07T07:29:56.617Z,1.50
2022-09-07T07:30:56.614Z,1.50
2022-09-07T07:31:56.599Z,1.50
2022-09-07T07:32:56.630Z,1.30
2022-09-07T07:33:56.641Z,1.20
2022-09-07T07:34:56.569Z,1.40
2022-09-07T07:35:56.562Z,1.60
2022-09-07T07:36:56.553Z,1.80
2022-09-07T07:39:01.358Z,2.10
2022-09-07T07:41:58.927Z,1.60
2022-09-07T07:42:56.493Z,1.50
2022-09-07T07:43:56.579Z,1.60
2022-09-07T07:45:56.531Z,1.70
2022-09-07T07:46:56.500Z,1.70
2022-09-07T07:47:56.453Z,1.70
2022-09-07T07:48:56.421Z,1.80
2022-09-07T07:50:30.938Z,1.20
2022-09-07T07:50:56.409Z,1.60
2022-09-07T07:53:56.641Z,1.60
2022-09-07T07:54:56.372Z,2.00
2022-09-07T07:55:56.364Z,1.40
2022-09-07T07:56:56.343Z,1.50
2022-09-07T07:57:56.336Z,1.60
2022-09-07T07:58:56.340Z,1.60
2022-09-07T07:59:56.315Z,1.60
2022-09-07T08:00:56.948Z,1.60
2022-09-07T08:01:56.455Z,1.10
2022-09-07T08:02:56.286Z,1.30
2022-09-07T08:03:56.296Z,1.50
2022-09-07T08:04:56.256Z,1.50
2022-09-07T08:05:56.272Z,1.30
2022-09-07T08:06:56.240Z,1.40
2022-09-07T08:07:56.234Z,1.20
2022-09-07T08:08:56.220Z,1.10
2022-09-07T08:09:56.225Z,1.60
2022-09-07T08:10:56.211Z,1.50
2022-09-07T08:11:56.194Z,1.40
2022-09-07T08:12:56.205Z,1.40
2022-09-07T08:13:56.175Z,1.40
2022-09-07T08:14:56.193Z,1.50
2022-09-07T08:15:56.220Z,1.60
2022-09-07T08:16:56.149Z,1.40
2022-09-07T08:17:56.141Z,1.20
2022-09-07T08:18:56.152Z,1.10
2022-09-07T08:19:56.121Z,1.10
2022-09-07T08:20:56.105Z,1.20
2022-09-07T08:21:56.092Z,1.50
2022-09-07T08:22:56.099Z,1.30
2022-09-07T08:23:56.094Z,1.20
2022-09-07T08:24:56.084Z,1.40
2022-09-07T08:25:56.051Z,1.20
2022-09-07T08:26:56.047Z,1.10
2022-09-07T08:27:56.028Z,1.30
2022-09-07T08:28:56.050Z,1.10
2022-09-07T08:29:56.009Z,1.30
2022-09-07T08:30:56.002Z,1.10
2022-09-07T08:31:56.030Z,1.10
2022-09-07T08:32:55.985Z,1.00
2022-09-07T08:33:55.996Z,0.80
2022-09-07T08:34:55.974Z,1.20
2022-09-07T08:35:55.954Z,1.10
2022-09-07T08:36:55.966Z,1.20
2022-09-07T08:37:55.948Z,1.30
2022-09-07T08:38:55.937Z,1.40
2022-09-07T08:39:55.983Z,1.30
2022-09-07T08:40:55.907Z,1.40
2022-09-07T08:41:55.893Z,1.20
2022-09-07T08:42:55.888Z,1.50
2022-09-07T08:43:55.882Z,1.20
2022-09-07T08:44:55.873Z,1.10
2022-09-07T08:45:55.873Z,1.40
2022-09-07T08:46:55.985Z,1.20
2022-09-07T08:47:55.832Z,1.40
2022-09-07T08:48:55.852Z,1.10
2022-09-07T08:49:55.816Z,1.00
2022-09-07T08:50:55.820Z,1.10
2022-09-07T08:51:55.824Z,1.50
2022-09-07T08:52:55.797Z,1.20
2022-09-07T08:53:55.799Z,1.20
2022-09-07T08:54:55.773Z,1.00
2022-09-07T08:55:55.753Z,1.00
2022-09-07T08:57:55.741Z,1.20
2022-09-07T08:58:55.741Z,1.60
2022-09-07T08:59:55.713Z,1.20
2022-09-07T09:05:55.856Z,1.00
2022-09-07T09:06:55.822Z,0.80
2022-09-07T09:07:55.652Z,1.00
2022-09-07T09:08:55.643Z,0.90
2022-09-07T09:09:55.617Z,0.90
2022-09-07T09:10:55.612Z,0.80
2022-09-07T09:11:55.680Z,1.00
2022-09-07T09:12:55.589Z,1.30
2022-09-07T09:13:55.586Z,1.00
2022-09-07T09:14:55.570Z,1.10
2022-09-07T09:15:55.606Z,1.10
2022-09-07T09:16:55.549Z,1.00
2022-09-07T09:17:55.536Z,1.30
2022-09-07T09:18:55.546Z,1.10
2022-09-07T09:19:55.514Z,1.00
2022-09-07T09:20:55.510Z,1.10
2022-09-07T09:21:55.494Z,1.40
2022-09-07T09:22:55.488Z,1.30
2022-09-07T09:23:55.477Z,1.30
2022-09-07T09:24:55.481Z,1.30
2022-09-07T09:25:55.455Z,1.10
2022-09-07T09:26:55.448Z,1.20
2022-09-07T09:27:55.435Z,1.10
2022-09-07T09:28:55.421Z,1.10
2022-09-07T09:29:55.429Z,1.50
2022-09-07T09:30:55.488Z,1.50
2022-09-07T09:31:55.404Z,1.20
2022-09-07T09:32:55.384Z,1.10
2022-09-07T09:33:55.375Z,1.00
2022-09-07T09:34:55.396Z,1.40
2022-09-07T09:35:55.358Z,1.30
2022-09-07T09:36:55.342Z,1.30
2022-09-07T09:37:55.356Z,1.00
2022-09-07T09:38:55.331Z,1.10
2022-09-07T09:39:57.102Z,1.30
2022-09-07T09:40:55.308Z,0.80
2022-09-07T09:41:55.322Z,1.00
2022-09-07T09:42:55.288Z,0.90
2022-09-07T09:43:55.280Z,1.00
2022-09-07T09:44:55.299Z,1.00
2022-09-07T09:47:55.303Z,1.20
2022-09-07T09:48:55.233Z,1.30
2022-09-07T09:49:55.380Z,0.90
2022-09-07T09:52:55.274Z,0.90
2022-09-07T09:53:55.174Z,1.00
2022-09-07T09:54:57.652Z,0.90
2022-09-07T09:55:55.156Z,1.30
2022-09-07T09:56:55.146Z,1.30
2022-09-07T09:59:57.445Z,1.20
2022-09-07T10:03:58.431Z,1.60
2022-09-07T10:04:55.079Z,1.20
2022-09-07T10:05:55.054Z,1.00
2022-09-07T10:06:55.045Z,1.10
2022-09-07T10:07:55.034Z,1.30
2022-09-07T10:08:55.017Z,0.80
2022-09-07T10:09:55.025Z,1.30
2022-09-07T10:10:54.998Z,1.20
2022-09-07T10:12:10.319Z,1.30
2022-09-07T10:12:54.985Z,1.20
2022-09-07T10:13:54.974Z,1.30
2022-09-07T10:14:54.973Z,1.00
2022-09-07T10:15:55.014Z,1.10
2022-09-07T10:16:55.709Z,1.20
2022-09-07T10:17:54.941Z,1.10
2022-09-07T10:18:54.919Z,0.90
2022-09-07T10:19:54.931Z,0.80
2022-09-07T10:20:54.895Z,0.90
2022-09-07T10:21:54.892Z,0.90
2022-09-07T10:22:54.875Z,0.90
2022-09-07T10:23:54.868Z,0.90
2022-09-07T10:24:54.879Z,0.90
2022-09-07T10:25:54.852Z,1.00
2022-09-07T10:26:54.835Z,0.90
2022-09-07T10:27:54.828Z,1.20
2022-09-07T10:29:10.598Z,1.00
2022-09-07T10:29:54.827Z,1.10
2022-09-07T10:30:54.827Z,1.10
2022-09-07T10:31:54.790Z,1.00
2022-09-07T10:32:54.778Z,0.80
2022-09-07T10:34:54.776Z,1.10
2022-09-07T10:35:54.768Z,1.00
2022-09-07T10:36:54.739Z,0.80
2022-09-07T10:37:54.723Z,1.00
2022-09-07T10:38:54.713Z,0.80
2022-09-07T10:39:59.638Z,1.10
2022-09-07T10:40:54.724Z,1.00
2022-09-07T10:41:54.690Z,0.90
2022-09-07T10:43:54.687Z,0.80
2022-09-07T10:44:54.665Z,0.60
2022-09-07T10:45:54.723Z,0.90
2022-09-07T10:46:58.268Z,1.20
2022-09-07T10:47:54.648Z,0.70
2022-09-07T10:48:54.629Z,1.20
2022-09-07T10:50:54.610Z,0.80
2022-09-07T10:51:54.645Z,0.60
2022-09-07T10:52:54.570Z,1.00
2022-09-07T10:54:54.650Z,1.00
2022-09-07T10:55:54.561Z,1.10
2022-09-07T10:56:54.526Z,0.80
2022-09-07T10:57:54.792Z,0.70
2022-09-07T10:59:02.888Z,0.90
2022-09-07T11:00:10.327Z,0.90
2022-09-07T11:00:54.508Z,0.80
2022-09-07T11:01:54.540Z,0.70
2022-09-07T11:03:54.558Z,0.80
2022-09-07T11:04:54.468Z,0.70
2022-09-07T11:05:54.455Z,1.00
2022-09-07T11:06:54.427Z,0.90
2022-09-07T11:07:54.420Z,0.70
2022-09-07T11:09:54.404Z,0.70
2022-09-07T11:10:54.403Z,0.70
2022-09-07T11:12:02.454Z,0.90
2022-09-07T11:12:54.444Z,0.80
2022-09-07T11:14:12.123Z,0.90
2022-09-07T11:14:54.397Z,0.90
2022-09-07T11:15:54.408Z,0.70
2022-09-07T11:16:54.487Z,0.80
2022-09-07T11:17:54.328Z,0.80
2022-09-07T11:19:35.040Z,0.90
2022-09-07T11:19:54.311Z,0.90
2022-09-07T11:20:54.299Z,0.80
2022-09-07T11:21:57.425Z,0.60
2022-09-07T11:22:54.306Z,0.70
2022-09-07T11:23:54.301Z,0.70
2022-09-07T11:25:54.276Z,0.80
2022-09-07T11:26:54.227Z,1.00
2022-09-07T11:27:54.220Z,1.10
2022-09-07T11:29:54.221Z,0.80
2022-09-07T11:30:57.927Z,0.90
2022-09-07T11:31:54.185Z,0.90
2022-09-07T11:32:54.198Z,0.70
2022-09-07T11:34:54.153Z,0.90
2022-09-07T11:35:54.152Z,0.80
2022-09-07T11:36:54.124Z,0.90
2022-09-07T11:37:54.119Z,0.80
2022-09-07T11:38:54.105Z,0.70
2022-09-07T11:39:54.253Z,0.60
2022-09-07T11:40:54.098Z,0.90
2022-09-07T11:41:54.082Z,0.80
2022-09-07T11:42:54.072Z,0.80
2022-09-07T11:44:45.279Z,1.50
2022-09-07T11:45:46.282Z,1.20
2022-09-07T11:46:46.347Z,0.90
2022-09-07T11:47:46.251Z,1.20
2022-09-07T11:48:46.242Z,0.60
2022-09-07T11:49:51.477Z,0.80
2022-09-07T11:50:46.241Z,0.80
2022-09-07T11:51:46.208Z,0.70
2022-09-07T11:52:46.204Z,0.80
2022-09-07T11:53:46.188Z,0.80
2022-09-07T11:54:46.189Z,0.70
2022-09-07T11:55:46.180Z,1.00
2022-09-07T11:56:46.172Z,0.90
2022-09-07T11:57:46.459Z,0.90
2022-09-07T11:58:46.144Z,0.70
2022-09-07T11:59:46.127Z,0.90
2022-09-07T12:00:46.176Z,0.70
2022-09-07T12:01:46.110Z,0.70
2022-09-07T12:02:58.727Z,0.50
2022-09-07T12:03:46.269Z,0.80
2022-09-07T12:04:46.119Z,0.70
2022-09-07T12:05:46.079Z,0.80
2022-09-07T12:06:46.061Z,0.60
2022-09-07T12:07:46.048Z,0.80
2022-09-07T12:08:46.041Z,0.70
2022-09-07T12:09:46.029Z,0.80
2022-09-07T12:10:46.037Z,1.00
2022-09-07T12:11:46.006Z,1.00
2022-09-07T12:12:46.003Z,0.70
2022-09-07T12:13:45.989Z,1.00
2022-09-07T12:14:45.982Z,0.70
2022-09-07T12:15:46.084Z,0.90
2022-09-07T12:16:45.960Z,0.70
2022-09-07T12:17:45.946Z,1.00
2022-09-07T12:18:45.940Z,0.90
2022-09-07T12:19:45.927Z,0.80
2022-09-07T12:20:45.939Z,0.70
2022-09-07T12:21:45.918Z,0.70
2022-09-07T12:22:45.903Z,0.90
2022-09-07T12:23:45.892Z,0.80
2022-09-07T12:24:45.893Z,0.90
2022-09-07T12:25:45.881Z,0.70
2022-09-07T12:26:45.866Z,0.60
2022-09-07T12:27:45.876Z,0.70
2022-09-07T12:28:45.849Z,0.70
2022-09-07T12:29:45.831Z,0.70
2022-09-07T12:30:45.861Z,0.80
2022-09-07T12:31:57.807Z,0.80
2022-09-07T12:32:54.180Z,0.80
2022-09-07T12:33:45.800Z,0.70
2022-09-07T12:34:45.785Z,0.80
2022-09-07T12:35:45.785Z,0.90
2022-09-07T12:36:45.766Z,1.10
2022-09-07T12:37:45.749Z,0.70
2022-09-07T12:38:45.752Z,0.80
2022-09-07T12:39:45.781Z,0.80
2022-09-07T12:40:45.736Z,0.80
2022-09-07T12:41:47.400Z,1.00
2022-09-07T12:42:45.707Z,0.90
2022-09-07T12:43:45.692Z,1.00
2022-09-07T12:44:45.712Z,1.00
2022-09-07T12:45:45.671Z,0.90
2022-09-07T12:46:46.689Z,0.90
2022-09-07T12:47:45.655Z,0.80
2022-09-07T12:48:45.648Z,0.80
2022-09-07T12:49:45.633Z,1.10
2022-09-07T12:50:45.678Z,0.90
2022-09-07T12:52:09.106Z,0.70
2022-09-07T12:52:45.622Z,0.70
2022-09-07T12:53:45.603Z,0.80
2022-09-07T12:54:45.618Z,0.80
2022-09-07T12:56:45.707Z,1.00
2022-09-07T12:57:45.556Z,0.60
2022-09-07T12:58:45.551Z,0.70
2022-09-07T12:59:45.531Z,0.80
2022-09-07T13:00:45.557Z,0.70
2022-09-07T13:01:45.667Z,0.80
2022-09-07T13:02:45.583Z,0.90
2022-09-07T13:03:52.818Z,0.80
2022-09-07T13:04:45.495Z,1.00
2022-09-07T13:05:45.487Z,0.80
2022-09-07T13:07:45.463Z,1.10
2022-09-07T13:08:45.448Z,0.80
2022-09-07T13:09:45.471Z,1.00
2022-09-07T13:10:45.442Z,1.00
2022-09-07T13:11:45.760Z,0.80
2022-09-07T13:12:53.170Z,1.00
2022-09-07T13:14:45.403Z,0.70
2022-09-07T13:15:45.482Z,1.10
2022-09-07T13:17:45.364Z,0.80
2022-09-07T13:18:45.349Z,1.00
2022-09-07T13:19:45.353Z,1.10
2022-09-07T13:20:45.328Z,0.90
2022-09-07T13:21:45.329Z,0.70
2022-09-07T13:22:45.628Z,0.80
2022-09-07T13:23:45.689Z,0.70
2022-09-07T13:24:46.515Z,0.90
2022-09-07T13:25:45.271Z,0.70
2022-09-07T13:26:49.355Z,0.80
2022-09-07T13:27:45.258Z,0.70
2022-09-07T13:28:45.250Z,1.10
2022-09-07T13:29:45.232Z,0.80
2022-09-07T13:30:45.314Z,1.10
2022-09-07T13:31:45.461Z,1.00
2022-09-07T13:33:45.200Z,0.80
2022-09-07T13:34:45.249Z,0.70
2022-09-07T13:35:45.184Z,0.80
2022-09-07T13:36:45.164Z,1.00
2022-09-07T13:37:45.153Z,1.00
2022-09-07T13:38:45.149Z,0.90
2022-09-07T13:39:45.226Z,0.90
2022-09-07T13:40:45.143Z,0.80
2022-09-07T13:41:45.134Z,0.90
2022-09-07T13:42:45.141Z,0.80
2022-09-07T13:43:45.200Z,0.70
2022-09-07T13:44:45.084Z,0.70
2022-09-07T13:45:45.170Z,0.80
2022-09-07T13:46:45.066Z,0.90
2022-09-07T13:47:45.052Z,0.70
2022-09-07T13:48:45.046Z,0.70
2022-09-07T13:49:45.034Z,0.90
2022-09-07T13:50:45.039Z,1.20
2022-09-07T13:51:45.010Z,0.90
2022-09-07T13:52:45.200Z,0.90
2022-09-07T13:53:45.044Z,1.10
2022-09-07T13:54:44.989Z,0.70
2022-09-07T13:55:44.983Z,0.90
2022-09-07T13:56:44.980Z,0.80
2022-09-07T13:57:44.975Z,0.70
2022-09-07T13:58:44.953Z,0.70
2022-09-07T13:59:44.941Z,0.90
2022-09-07T14:00:44.950Z,1.00
2022-09-07T14:01:45.000Z,1.00
2022-09-07T14:02:44.980Z,0.60
2022-09-07T14:03:44.898Z,0.80
2022-09-07T14:04:44.883Z,1.00
2022-09-07T14:05:44.894Z,0.80
2022-09-07T14:06:44.861Z,0.80